createdAt,value
2023-01-27T00:00:53.764Z,102587.03
2023-01-27T00:01:55.559Z,102585.22
2023-01-27T00:02:57.405Z,102582.19
2023-01-27T00:03:59.330Z,102592.38
2023-01-27T00:05:01.254Z,102587.97
2023-01-27T00:06:06.640Z,102582.94
2023-01-27T00:07:08.557Z,102590.66
2023-01-27T00:08:10.480Z,102580.34
2023-01-27T00:09:12.321Z,102588.94
2023-01-27T00:10:17.001Z,102587.22
2023-01-27T00:11:37.564Z,102591.63
2023-01-27T00:12:57.811Z,102581.13
2023-01-27T00:13:59.726Z,102573.97
2023-01-27T00:15:01.581Z,102588.75
2023-01-27T00:16:03.653Z,102587.41
2023-01-27T00:17:05.422Z,102587.59
2023-01-27T00:18:08.191Z,102589.31
2023-01-27T00:19:10.047Z,102589.13
2023-01-27T00:20:12.549Z,102563.19
2023-01-27T00:21:33.047Z,102580.34
2023-01-27T00:22:53.339Z,102571.59
2023-01-27T00:24:13.690Z,102579.97
2023-01-27T00:25:15.527Z,102580.84
2023-01-27T00:26:19.501Z,102582.00
2023-01-27T00:27:21.369Z,102587.41
2023-01-27T00:28:23.225Z,102584.00
2023-01-27T00:29:26.851Z,102582.28
2023-01-27T00:30:28.668Z,102588.56
2023-01-27T00:31:48.928Z,102586.84
2023-01-27T00:33:09.707Z,102586.72
2023-01-27T00:34:11.705Z,102588.28
2023-01-27T00:35:16.482Z,102591.03
2023-01-27T00:36:18.383Z,102587.59
2023-01-27T00:37:20.891Z,102587.81
2023-01-27T00:38:22.730Z,102601.16
2023-01-27T00:39:24.722Z,102597.72
2023-01-27T00:40:26.516Z,102608.41
2023-01-27T00:41:28.980Z,102590.19
2023-01-27T00:42:30.876Z,102597.81
2023-01-27T00:43:33.070Z,102592.09
2023-01-27T00:44:34.940Z,102612.13
2023-01-27T00:45:48.949Z,102609.44
2023-01-27T00:46:50.920Z,102612.88
2023-01-27T00:47:53.246Z,102614.72
2023-01-27T00:48:55.120Z,102602.69
2023-01-27T00:49:57.086Z,102613.94
2023-01-27T00:50:59.368Z,102608.69
2023-01-27T00:52:01.250Z,102608.69
2023-01-27T00:53:03.111Z,102616.69
2023-01-27T00:54:05.271Z,102620.31
2023-01-27T00:55:08.098Z,102616.81
2023-01-27T00:56:10.606Z,102616.81
2023-01-27T00:57:12.673Z,102607.47
2023-01-27T00:58:14.715Z,102612.31
2023-01-27T00:59:16.563Z,102599.53
2023-01-27T01:00:20.409Z,102615.94
2023-01-27T01:01:22.311Z,102612.31
2023-01-27T01:02:24.162Z,102616.81
2023-01-27T01:03:31.177Z,102604.41
2023-01-27T01:04:33.119Z,102606.97
2023-01-27T01:05:35.111Z,102601.72
2023-01-27T01:06:37.339Z,102599.44
2023-01-27T01:07:39.147Z,102595.63
2023-01-27T01:08:43.557Z,102594.69
2023-01-27T01:09:45.436Z,102585.78
2023-01-27T01:10:47.264Z,102576.50
2023-01-27T01:11:49.086Z,102589.41
2023-01-27T01:12:50.888Z,102583.50
2023-01-27T01:13:56.065Z,102589.41
2023-01-27T01:14:58.289Z,102585.91
2023-01-27T01:16:15.643Z,102595.63
2023-01-27T01:17:17.511Z,102580.81
2023-01-27T01:18:19.619Z,102594.00
2023-01-27T01:19:21.436Z,102588.91
2023-01-27T01:20:24.497Z,102591.31
2023-01-27T01:21:26.431Z,102591.31
2023-01-27T01:22:28.300Z,102596.78
2023-01-27T01:23:30.178Z,102589.72
2023-01-27T01:24:32.087Z,102589.72
2023-01-27T01:25:34.814Z,102587.03
2023-01-27T01:26:37.370Z,102596.00
2023-01-27T01:27:40.775Z,102602.19
2023-01-27T01:28:46.924Z,102589.09
2023-01-27T01:29:48.804Z,102597.72
2023-01-27T01:30:50.757Z,102598.69
2023-01-27T01:31:52.668Z,102597.88
2023-01-27T01:32:55.069Z,102607.72
2023-01-27T01:33:56.935Z,102604.09
2023-01-27T01:34:58.783Z,102597.03
2023-01-27T01:36:05.808Z,102596.16
2023-01-27T01:37:07.642Z,102597.03
2023-01-27T01:38:10.136Z,102591.69
2023-01-27T01:39:11.933Z,102589.09
2023-01-27T01:40:14.833Z,102589.09
2023-01-27T01:41:20.570Z,102581.28
2023-01-27T01:42:22.527Z,102577.59
2023-01-27T01:43:26.447Z,102568.13
2023-01-27T01:44:30.951Z,102580.34
2023-01-27T01:45:36.465Z,102569.66
2023-01-27T01:46:38.479Z,102568.81
2023-01-27T01:47:40.435Z,102568.69
2023-01-27T01:48:53.654Z,102567.94
2023-01-27T01:49:55.590Z,102570.41
2023-01-27T01:51:01.863Z,102565.25
2023-01-27T01:52:10.038Z,102564.31
2023-01-27T01:53:12.245Z,102561.63
2023-01-27T01:54:21.636Z,102567.09
2023-01-27T01:55:24.422Z,102565.19
2023-01-27T01:56:32.448Z,102545.63
2023-01-27T01:57:37.697Z,102552.22
2023-01-27T01:59:53.394Z,102563.66
2023-01-27T02:00:56.315Z,102567.16
2023-01-27T02:02:03.546Z,102569.06
2023-01-27T02:03:07.176Z,102573.47
2023-01-27T02:04:15.564Z,102579.75
2023-01-27T02:05:22.303Z,102573.47
2023-01-27T02:06:24.222Z,102578.81
2023-01-27T02:07:34.480Z,102578.03
2023-01-27T02:08:40.292Z,102571.84
2023-01-27T02:09:42.810Z,102576.25
2023-01-27T02:10:44.971Z,102574.41
2023-01-27T02:11:46.819Z,102575.47
2023-01-27T02:12:48.872Z,102570.16
2023-01-27T02:13:50.845Z,102559.16
2023-01-27T02:14:52.978Z,102568.50
2023-01-27T02:15:56.518Z,102572.88
2023-01-27T02:16:58.658Z,102573.84
2023-01-27T02:18:02.585Z,102573.97
2023-01-27T02:19:05.935Z,102573.84
2023-01-27T02:20:31.276Z,102570.34
2023-01-27T02:21:33.278Z,102550.78
2023-01-27T02:23:10.554Z,102567.75
2023-01-27T02:24:13.670Z,102556.78
2023-01-27T02:25:29.479Z,102569.06
2023-01-27T02:26:36.155Z,102565.44
2023-01-27T02:27:38.196Z,102562.97
2023-01-27T02:28:40.037Z,102554.38
2023-01-27T02:29:41.912Z,102563.16
2023-01-27T02:30:44.036Z,102558.00
2023-01-27T02:31:46.040Z,102564.31
2023-01-27T02:32:47.975Z,102551.91
2023-01-27T02:33:54.035Z,102557.25
2023-01-27T02:34:57.000Z,102558.19
2023-01-27T02:36:04.196Z,102554.94
2023-01-27T02:37:10.456Z,102542.53
2023-01-27T02:38:14.529Z,102557.25
2023-01-27T02:39:20.721Z,102552.88
2023-01-27T02:40:24.043Z,102550.38
2023-01-27T02:41:27.971Z,102554.56
2023-01-27T02:42:30.286Z,102559.91
2023-01-27T02:43:32.127Z,102562.66
2023-01-27T02:44:34.063Z,102561.06
2023-01-27T02:45:37.646Z,102557.44
2023-01-27T02:46:39.628Z,102552.16
2023-01-27T02:47:42.068Z,102553.91
2023-01-27T02:48:44.907Z,102555.72
2023-01-27T02:49:47.187Z,102552.16
2023-01-27T02:50:49.159Z,102548.63
2023-01-27T02:51:51.088Z,102550.38
2023-01-27T02:52:53.364Z,102551.31
2023-01-27T02:53:56.803Z,102545.97
2023-01-27T02:54:58.683Z,102540.22
2023-01-27T02:56:00.483Z,102547.00
2023-01-27T02:57:02.386Z,102547.88
2023-01-27T02:58:07.831Z,102548.72
2023-01-27T02:59:16.991Z,102545.97
2023-01-27T03:00:18.957Z,102547.88
2023-01-27T03:01:20.755Z,102550.53
2023-01-27T03:02:30.641Z,102552.34
2023-01-27T03:03:32.537Z,102555.75
2023-01-27T03:04:38.920Z,102552.34
2023-01-27T03:05:41.104Z,102559.38
2023-01-27T03:06:43.224Z,102551.50
2023-01-27T03:07:45.271Z,102547.09
2023-01-27T03:08:48.400Z,102549.78
2023-01-27T03:09:50.894Z,102546.22
2023-01-27T03:10:54.509Z,102549.00
2023-01-27T03:12:15.906Z,102546.34
2023-01-27T03:13:22.251Z,102544.31
2023-01-27T03:14:45.153Z,102547.00
2023-01-27T03:16:06.876Z,102539.19
2023-01-27T03:17:27.243Z,102540.06
2023-01-27T03:18:29.384Z,102554.81
2023-01-27T03:19:31.425Z,102558.53
2023-01-27T03:20:33.332Z,102554.34
2023-01-27T03:21:35.126Z,102552.72
2023-01-27T03:22:37.086Z,102557.19
2023-01-27T03:23:39.767Z,102555.38
2023-01-27T03:24:41.787Z,102552.81
2023-01-27T03:25:48.303Z,102551.09
2023-01-27T03:26:50.406Z,102554.53
2023-01-27T03:27:55.832Z,102551.88
2023-01-27T03:29:20.235Z,102558.91
2023-01-27T03:30:22.402Z,102551.69
2023-01-27T03:31:50.262Z,102543.38
2023-01-27T03:32:52.587Z,102542.72
2023-01-27T03:34:14.484Z,102514.00
2023-01-27T03:35:23.094Z,102536.50
2023-01-27T03:36:43.619Z,102538.53
2023-01-27T03:38:04.512Z,102533.00
2023-01-27T03:39:24.888Z,102536.44
2023-01-27T03:40:46.071Z,102540.06
2023-01-27T03:42:06.556Z,102537.38
2023-01-27T03:43:30.252Z,102540.81
2023-01-27T03:44:51.186Z,102526.69
2023-01-27T03:46:11.489Z,102517.44
2023-01-27T03:47:13.427Z,102518.13
2023-01-27T03:48:17.398Z,102524.41
2023-01-27T03:49:19.499Z,102528.97
2023-01-27T03:50:31.207Z,102513.16
2023-01-27T03:51:33.231Z,102511.78
2023-01-27T03:52:34.988Z,102520.38
2023-01-27T03:53:37.415Z,102508.16
2023-01-27T03:54:39.265Z,102516.94
2023-01-27T03:55:41.448Z,102512.38
2023-01-27T03:56:43.342Z,102518.75
2023-01-27T03:57:45.913Z,102515.31
2023-01-27T03:58:49.938Z,102518.84
2023-01-27T03:59:52.383Z,102527.59
2023-01-27T04:01:14.443Z,102514.06
2023-01-27T04:02:34.871Z,102538.03
2023-01-27T04:03:55.464Z,102528.97
2023-01-27T04:05:16.091Z,102513.31
2023-01-27T04:06:39.021Z,102520.03
2023-01-27T04:07:40.887Z,102519.25
2023-01-27T04:08:43.629Z,102514.94
2023-01-27T04:09:45.407Z,102519.41
2023-01-27T04:11:07.107Z,102524.00
2023-01-27T04:12:10.221Z,102522.09
2023-01-27T04:13:11.982Z,102525.88
2023-01-27T04:14:14.030Z,102524.94
2023-01-27T04:15:17.477Z,102506.16
2023-01-27T04:16:29.022Z,102529.50
2023-01-27T04:17:38.830Z,102523.22
2023-01-27T04:18:40.853Z,102516.94
2023-01-27T04:19:43.039Z,102506.44
2023-01-27T04:20:44.833Z,102518.84
2023-01-27T04:21:47.423Z,102519.03
2023-01-27T04:22:49.203Z,102513.69
2023-01-27T04:23:52.280Z,102513.69
2023-01-27T04:24:54.213Z,102513.81
2023-01-27T04:25:56.702Z,102512.84
2023-01-27T04:27:27.799Z,102508.75
2023-01-27T04:28:43.784Z,102504.34
2023-01-27T04:29:46.379Z,102504.34
2023-01-27T04:30:48.920Z,102514.38
2023-01-27T04:31:51.571Z,102516.28
2023-01-27T04:32:53.423Z,102512.75
2023-01-27T04:33:55.280Z,102519.03
2023-01-27T04:34:57.095Z,102519.97
2023-01-27T04:35:59.015Z,102516.47
2023-01-27T04:37:00.818Z,102514.81
2023-01-27T04:38:02.952Z,102515.59
2023-01-27T04:39:04.826Z,102493.09
2023-01-27T04:40:09.335Z,102522.75
2023-01-27T04:41:11.344Z,102523.59
2023-01-27T04:42:13.103Z,102513.88
2023-01-27T04:43:15.292Z,102512.34
2023-01-27T04:44:20.182Z,102520.09
2023-01-27T04:45:21.964Z,102515.59
2023-01-27T04:46:23.894Z,102514.81
2023-01-27T04:47:25.713Z,102512.16
2023-01-27T04:48:27.578Z,102512.16
2023-01-27T04:49:29.388Z,102514.81
2023-01-27T04:50:31.216Z,102513.97
2023-01-27T04:51:33.930Z,102514.06
2023-01-27T04:52:35.810Z,102517.50
2023-01-27T04:53:37.704Z,102503.75
2023-01-27T04:54:39.559Z,102504.25
2023-01-27T04:55:46.163Z,102516.72
2023-01-27T04:57:00.223Z,102504.16
2023-01-27T04:58:02.011Z,102505.78
2023-01-27T04:59:06.952Z,102501.47
2023-01-27T05:00:10.623Z,102496.16
2023-01-27T05:01:12.434Z,102505.09
2023-01-27T05:02:14.307Z,102501.59
2023-01-27T05:03:16.231Z,102501.59
2023-01-27T05:04:18.150Z,102501.69
2023-01-27T05:05:19.913Z,102493.66
2023-01-27T05:06:22.458Z,102488.34
2023-01-27T05:07:24.638Z,102485.78
2023-01-27T05:08:26.668Z,102482.22
2023-01-27T05:09:28.544Z,102471.75
2023-01-27T05:10:30.309Z,102467.75
2023-01-27T05:11:32.151Z,102482.41
2023-01-27T05:12:34.004Z,102482.22
2023-01-27T05:13:36.035Z,102487.56
2023-01-27T05:14:37.888Z,102485.84
2023-01-27T05:15:39.761Z,102491.19
2023-01-27T05:16:41.689Z,102485.84
2023-01-27T05:17:43.637Z,102480.53
2023-01-27T05:18:47.919Z,102484.13
2023-01-27T05:19:49.925Z,102479.69
2023-01-27T05:20:52.351Z,102484.31
2023-01-27T05:21:54.157Z,102487.56
2023-01-27T05:23:16.084Z,102485.84
2023-01-27T05:24:17.877Z,102489.09
2023-01-27T05:25:19.755Z,102491.00
2023-01-27T05:26:24.254Z,102485.00
2023-01-27T05:27:26.064Z,102484.91
2023-01-27T05:28:28.414Z,102485.00
2023-01-27T05:29:31.543Z,102485.84
2023-01-27T05:30:33.377Z,102487.84
2023-01-27T05:31:35.621Z,102489.66
2023-01-27T05:32:37.539Z,102482.41
2023-01-27T05:33:40.222Z,102490.41
2023-01-27T05:34:42.095Z,102488.63
2023-01-27T05:35:43.931Z,102500.16
2023-01-27T05:36:45.691Z,102493.09
2023-01-27T05:37:47.504Z,102498.44
2023-01-27T05:38:49.722Z,102498.44
2023-01-27T05:39:51.542Z,102487.75
2023-01-27T05:40:58.047Z,102493.09
2023-01-27T05:41:59.853Z,102481.91
2023-01-27T05:43:01.633Z,102493.97
2023-01-27T05:44:04.396Z,102459.59
2023-01-27T05:45:06.964Z,102489.59
2023-01-27T05:46:11.817Z,102490.50
2023-01-27T05:47:13.694Z,102487.75
2023-01-27T05:48:15.575Z,102487.75
2023-01-27T05:49:17.366Z,102484.31
2023-01-27T05:50:19.279Z,102483.38
2023-01-27T05:51:23.402Z,102487.84
2023-01-27T05:52:25.169Z,102484.25
2023-01-27T05:53:27.160Z,102478.97
2023-01-27T05:54:29.002Z,102486.03
2023-01-27T05:55:30.777Z,102485.16
2023-01-27T05:56:34.141Z,102487.19
2023-01-27T05:57:36.079Z,102487.84
2023-01-27T05:58:39.007Z,102490.50
2023-01-27T05:59:40.902Z,102491.38
2023-01-27T06:00:42.905Z,102487.94
2023-01-27T06:01:44.915Z,102502.13
2023-01-27T06:02:47.604Z,102484.69
2023-01-27T06:03:50.007Z,102495.06
2023-01-27T06:04:51.851Z,102495.94
2023-01-27T06:05:56.450Z,102490.03
2023-01-27T06:06:58.210Z,102487.00
2023-01-27T06:07:59.991Z,102481.72
2023-01-27T06:09:01.872Z,102477.53
2023-01-27T06:10:03.943Z,102481.66
2023-01-27T06:11:06.753Z,102478.09
2023-01-27T06:12:08.633Z,102486.03
2023-01-27T06:13:10.576Z,102458.09
2023-01-27T06:14:12.456Z,102487.56
2023-01-27T06:15:14.618Z,102478.59
2023-01-27T06:16:19.294Z,102470.91
2023-01-27T06:17:21.172Z,102478.59
2023-01-27T06:18:24.040Z,102485.28
2023-01-27T06:19:25.843Z,102483.38
2023-01-27T06:20:27.654Z,102492.16
2023-01-27T06:21:29.422Z,102490.25
2023-01-27T06:22:31.262Z,102461.56
2023-01-27T06:23:33.281Z,102490.84
2023-01-27T06:24:35.092Z,102489.72
2023-01-27T06:25:42.957Z,102482.47
2023-01-27T06:26:44.731Z,102488.38
2023-01-27T06:27:46.635Z,102484.56
2023-01-27T06:28:48.685Z,102473.31
2023-01-27T06:29:50.522Z,102493.25
2023-01-27T06:30:53.260Z,102491.25
2023-01-27T06:31:55.150Z,102492.03
2023-01-27T06:32:57.025Z,102468.53
2023-01-27T06:33:58.865Z,102485.47
2023-01-27T06:35:00.686Z,102481.84
2023-01-27T06:36:05.657Z,102482.69
2023-01-27T06:37:07.445Z,102483.44
2023-01-27T06:38:12.883Z,102482.09
2023-01-27T06:39:14.648Z,102480.09
2023-01-27T06:40:16.750Z,102475.53
2023-01-27T06:41:18.870Z,102471.91
2023-01-27T06:42:20.677Z,102472.56
2023-01-27T06:43:22.556Z,102471.50
2023-01-27T06:44:24.454Z,102462.44
2023-01-27T06:45:27.033Z,102461.69
2023-01-27T06:46:28.936Z,102471.09
2023-01-27T06:47:30.772Z,102469.19
2023-01-27T06:48:33.024Z,102458.06
2023-01-27T06:49:34.913Z,102452.59
2023-01-27T06:50:37.584Z,102469.88
2023-01-27T06:51:39.448Z,102457.00
2023-01-27T06:52:41.245Z,102472.34
2023-01-27T06:53:43.123Z,102467.88
2023-01-27T06:54:45.021Z,102473.22
2023-01-27T06:55:47.283Z,102462.41
2023-01-27T06:56:49.228Z,102464.13
2023-01-27T06:57:51.895Z,102465.19
2023-01-27T06:58:53.683Z,102464.88
2023-01-27T06:59:56.112Z,102463.94
2023-01-27T07:00:58.140Z,102454.94
2023-01-27T07:02:00.835Z,102451.31
2023-01-27T07:03:03.296Z,102452.19
2023-01-27T07:04:05.137Z,102457.41
2023-01-27T07:05:07.223Z,102457.41
2023-01-27T07:06:11.144Z,102459.25
2023-01-27T07:07:13.082Z,102462.69
2023-01-27T07:08:15.045Z,102463.53
2023-01-27T07:09:16.980Z,102454.88
2023-01-27T07:10:19.110Z,102462.00
2023-01-27T07:11:20.971Z,102461.81
2023-01-27T07:12:22.738Z,102471.53
2023-01-27T07:13:24.594Z,102465.34
2023-01-27T07:14:26.363Z,102461.06
2023-01-27T07:15:28.562Z,102464.47
2023-01-27T07:16:30.659Z,102472.50
2023-01-27T07:17:32.647Z,102469.81
2023-01-27T07:18:34.928Z,102468.09
2023-01-27T07:19:36.731Z,102465.44
2023-01-27T07:20:38.527Z,102463.63
2023-01-27T07:21:40.519Z,102466.31
2023-01-27T07:22:42.276Z,102464.13
2023-01-27T07:23:44.160Z,102465.44
2023-01-27T07:24:46.112Z,102470.78
2023-01-27T07:25:47.904Z,102449.06
2023-01-27T07:26:49.710Z,102462.88
2023-01-27T07:27:51.858Z,102458.38
2023-01-27T07:28:53.840Z,102454.50
2023-01-27T07:29:55.788Z,102465.44
2023-01-27T07:31:01.611Z,102464.69
2023-01-27T07:32:03.655Z,102468.09
2023-01-27T07:33:10.533Z,102460.22
2023-01-27T07:34:12.456Z,102441.25
2023-01-27T07:35:14.296Z,102456.47
2023-01-27T07:36:16.094Z,102452.19
2023-01-27T07:37:18.251Z,102449.41
2023-01-27T07:38:20.090Z,102441.03
2023-01-27T07:39:21.910Z,102437.72
2023-01-27T07:40:23.705Z,102449.59
2023-01-27T07:41:26.392Z,102455.72
2023-01-27T07:42:28.170Z,102455.72
2023-01-27T07:43:29.957Z,102461.06
2023-01-27T07:44:31.881Z,102457.53
2023-01-27T07:45:33.721Z,102458.38
2023-01-27T07:46:35.826Z,102457.63
2023-01-27T07:47:37.997Z,102448.66
2023-01-27T07:48:39.795Z,102444.47
2023-01-27T07:49:41.676Z,102448.66
2023-01-27T07:50:43.540Z,102448.09
2023-01-27T07:51:45.790Z,102457.53
2023-01-27T07:52:47.636Z,102458.38
2023-01-27T07:53:49.494Z,102453.03
2023-01-27T07:54:51.435Z,102454.00
2023-01-27T07:55:53.282Z,102445.97
2023-01-27T07:56:55.076Z,102443.50
2023-01-27T07:57:57.512Z,102449.59
2023-01-27T07:58:59.267Z,102438.38
2023-01-27T08:00:01.117Z,102445.03
2023-01-27T08:01:06.065Z,102444.25
2023-01-27T08:02:10.272Z,102451.31
2023-01-27T08:03:31.603Z,102436.38
2023-01-27T08:04:43.448Z,102445.56
2023-01-27T08:05:52.939Z,102441.09
2023-01-27T08:06:54.995Z,102432.63
2023-01-27T08:07:58.793Z,102431.84
2023-01-27T08:09:00.853Z,102451.13
2023-01-27T08:10:02.665Z,102444.06
2023-01-27T08:11:10.227Z,102452.19
2023-01-27T08:12:12.033Z,102439.59
2023-01-27T08:13:13.901Z,102443.22
2023-01-27T08:14:15.725Z,102438.84
2023-01-27T08:15:19.165Z,102425.88
2023-01-27T08:16:21.284Z,102426.84
2023-01-27T08:17:23.115Z,102424.81
2023-01-27T08:18:26.034Z,102430.91
2023-01-27T08:19:27.823Z,102426.31
2023-01-27T08:20:29.766Z,102424.59
2023-01-27T08:21:33.265Z,102420.97
2023-01-27T08:22:35.150Z,102424.59
2023-01-27T08:23:37.475Z,102423.66
2023-01-27T08:24:39.229Z,102422.03
2023-01-27T08:25:40.982Z,102416.59
2023-01-27T08:26:42.850Z,102413.34
2023-01-27T08:27:44.617Z,102404.91
2023-01-27T08:28:46.544Z,102426.31
2023-01-27T08:29:48.316Z,102420.97
2023-01-27T08:30:53.812Z,102410.41
2023-01-27T08:31:55.648Z,102419.06
2023-01-27T08:32:57.517Z,102408.03
2023-01-27T08:33:59.496Z,102421.16
2023-01-27T08:35:01.278Z,102413.91
2023-01-27T08:36:15.380Z,102402.13
2023-01-27T08:37:17.231Z,102419.06
2023-01-27T08:38:19.810Z,102422.69
2023-01-27T08:39:21.903Z,102413.91
2023-01-27T08:40:23.798Z,102425.34
2023-01-27T08:41:27.057Z,102416.59
2023-01-27T08:42:28.832Z,102415.53
2023-01-27T08:43:30.907Z,102413.91
2023-01-27T08:44:32.799Z,102411.56
2023-01-27T08:45:35.960Z,102416.59
2023-01-27T08:46:37.971Z,102406.78
2023-01-27T08:47:39.758Z,102413.91
2023-01-27T08:48:41.873Z,102409.66
2023-01-27T08:49:43.676Z,102412.13
2023-01-27T08:50:45.441Z,102417.34
2023-01-27T08:51:47.291Z,102426.09
2023-01-27T08:52:49.131Z,102412.19
2023-01-27T08:53:51.003Z,102398.50
2023-01-27T08:54:52.815Z,102417.34
2023-01-27T08:55:58.006Z,102412.88
2023-01-27T08:56:59.795Z,102426.09
2023-01-27T08:58:01.698Z,102415.41
2023-01-27T08:59:03.620Z,102419.06
2023-01-27T09:00:07.644Z,102417.34
2023-01-27T09:01:09.745Z,102400.97
2023-01-27T09:02:13.592Z,102420.88
2023-01-27T09:03:16.079Z,102411.78
2023-01-27T09:04:17.994Z,102419.81
2023-01-27T09:05:20.879Z,102418.97
2023-01-27T09:06:22.751Z,102414.47
2023-01-27T09:07:24.563Z,102412.00
2023-01-27T09:08:27.486Z,102406.66
2023-01-27T09:09:29.258Z,102412.66
2023-01-27T09:10:31.669Z,102421.53
2023-01-27T09:11:33.821Z,102415.22
2023-01-27T09:12:35.620Z,102424.09
2023-01-27T09:13:37.668Z,102419.59
2023-01-27T09:14:40.296Z,102421.44
2023-01-27T09:15:43.874Z,102420.47
2023-01-27T09:16:45.751Z,102422.28
2023-01-27T09:17:47.706Z,102412.47
2023-01-27T09:18:49.459Z,102421.44
2023-01-27T09:19:51.855Z,102400.56
2023-01-27T09:20:53.718Z,102415.22
2023-01-27T09:21:55.736Z,102416.09
2023-01-27T09:22:58.173Z,102397.78
2023-01-27T09:24:00.039Z,102415.22
2023-01-27T09:25:01.851Z,102400.16
2023-01-27T09:26:03.640Z,102365.13
2023-01-27T09:27:05.592Z,102399.19
2023-01-27T09:28:12.272Z,102385.81
2023-01-27T09:29:14.123Z,102386.78
2023-01-27T09:30:16.688Z,102390.22
2023-01-27T09:31:18.817Z,102377.19
2023-01-27T09:32:20.817Z,102389.28
2023-01-27T09:33:22.742Z,102385.81
2023-01-27T09:34:24.627Z,102385.75
2023-01-27T09:35:32.050Z,102396.50
2023-01-27T09:36:40.758Z,102391.97
2023-01-27T09:38:04.018Z,102389.84
2023-01-27T09:39:08.498Z,102389.84
2023-01-27T09:40:41.863Z,102387.78
2023-01-27T09:41:51.985Z,102379.03
2023-01-27T09:43:23.494Z,102389.50
2023-01-27T09:45:02.429Z,102384.69
2023-01-27T09:46:06.848Z,102385.56
2023-01-27T09:47:26.875Z,102377.97
2023-01-27T09:48:38.960Z,102378.72
2023-01-27T09:49:56.536Z,102387.72
2023-01-27T09:51:05.872Z,102389.50
2023-01-27T09:52:10.217Z,102383.31
2023-01-27T09:53:25.998Z,102390.47
2023-01-27T09:54:45.120Z,102387.78
2023-01-27T09:55:49.496Z,102395.59
2023-01-27T09:56:54.286Z,102384.28
2023-01-27T09:58:05.060Z,102402.03
2023-01-27T09:59:06.879Z,102398.47
2023-01-27T10:00:37.930Z,102388.53
2023-01-27T10:01:54.531Z,102394.56
2023-01-27T10:03:14.914Z,102391.69
2023-01-27T10:04:35.163Z,102390.94
2023-01-27T10:05:56.700Z,102388.78
2023-01-27T10:07:12.690Z,102386.22
2023-01-27T10:08:34.656Z,102386.97
2023-01-27T10:09:51.246Z,102384.50
2023-01-27T10:11:14.910Z,102377.16
2023-01-27T10:12:37.612Z,102374.69
2023-01-27T10:13:59.716Z,102372.97
2023-01-27T10:15:04.239Z,102375.63
2023-01-27T10:16:11.222Z,102382.78
2023-01-27T10:17:44.130Z,102379.06
2023-01-27T10:19:15.415Z,102374.38
2023-01-27T10:20:35.595Z,102371.78
2023-01-27T10:22:00.662Z,102374.47
2023-01-27T10:23:02.418Z,102375.34
2023-01-27T10:24:12.775Z,102372.97
2023-01-27T10:25:26.805Z,102373.94
2023-01-27T10:26:39.660Z,102366.94
2023-01-27T10:27:48.287Z,102373.06
2023-01-27T10:29:03.318Z,102364.28
2023-01-27T10:30:35.849Z,102368.16
2023-01-27T10:31:53.233Z,102361.53
2023-01-27T10:33:13.159Z,102360.66
2023-01-27T10:34:28.112Z,102362.91
2023-01-27T10:35:45.239Z,102359.47
2023-01-27T10:37:06.750Z,102362.16
2023-01-27T10:38:29.303Z,102335.09
2023-01-27T10:39:50.172Z,102356.50
2023-01-27T10:41:43.281Z,102347.06
2023-01-27T10:43:02.235Z,102351.69
2023-01-27T10:44:24.984Z,102345.59
2023-01-27T10:45:42.719Z,102354.59
2023-01-27T10:47:26.116Z,102347.31
2023-01-27T10:48:36.687Z,102337.50
2023-01-27T10:50:12.773Z,102334.69
2023-01-27T10:51:42.131Z,102337.28
2023-01-27T10:53:07.167Z,102334.69
2023-01-27T10:54:24.820Z,102336.63
2023-01-27T10:55:33.748Z,102326.13
2023-01-27T10:56:39.619Z,102322.63
2023-01-27T10:58:33.706Z,102323.38
2023-01-27T11:00:05.302Z,102327.44
2023-01-27T11:01:20.719Z,102320.59
2023-01-27T11:02:36.812Z,102315.34
2023-01-27T11:03:54.681Z,102322.22
2023-01-27T11:05:07.629Z,102316.94
2023-01-27T11:06:16.655Z,102292.25
2023-01-27T11:07:21.572Z,102312.78
2023-01-27T11:08:28.244Z,102319.09
2023-01-27T11:09:48.507Z,102313.53
2023-01-27T11:11:13.898Z,102301.41
2023-01-27T11:12:16.635Z,102297.69
2023-01-27T11:13:18.533Z,102307.34
2023-01-27T11:14:27.880Z,102302.09
2023-01-27T11:15:34.858Z,102290.84
2023-01-27T11:16:40.281Z,102280.16
2023-01-27T11:17:44.877Z,102282.84
2023-01-27T11:18:55.703Z,102286.16
2023-01-27T11:20:23.967Z,102280.59
2023-01-27T11:21:31.352Z,102286.56
2023-01-27T11:22:44.004Z,102276.31
2023-01-27T11:23:51.944Z,102279.53
2023-01-27T11:25:08.584Z,102277.59
2023-01-27T11:26:16.283Z,102254.19
2023-01-27T11:27:35.974Z,102268.81
2023-01-27T11:28:56.916Z,102265.88
2023-01-27T11:30:09.117Z,102259.75
2023-01-27T11:31:42.127Z,102260.31
2023-01-27T11:32:59.351Z,102252.38
2023-01-27T11:34:03.950Z,102258.69
2023-01-27T11:35:15.825Z,102243.19
2023-01-27T11:36:18.048Z,102258.13
2023-01-27T11:37:27.287Z,102241.78
2023-01-27T11:38:29.122Z,102260.72
2023-01-27T11:39:33.738Z,102261.75
2023-01-27T11:40:38.534Z,102249.78
2023-01-27T11:41:47.803Z,102256.41
2023-01-27T11:42:51.919Z,102253.66
2023-01-27T11:43:53.973Z,102252.78
2023-01-27T11:44:58.182Z,102247.88
2023-01-27T11:46:06.772Z,102250.22
2023-01-27T11:47:16.055Z,102249.16
2023-01-27T11:48:21.752Z,102242.84
2023-01-27T11:49:48.395Z,102246.06
2023-01-27T11:50:50.266Z,102243.41
2023-01-27T11:51:52.119Z,102240.84
2023-01-27T11:53:09.550Z,102232.09
2023-01-27T11:54:29.082Z,102233.44
2023-01-27T11:55:38.596Z,102210.97
2023-01-27T11:56:43.968Z,102231.88
2023-01-27T11:57:55.353Z,102223.94
2023-01-27T11:59:06.737Z,102215.34
2023-01-27T12:00:32.134Z,102227.47
2023-01-27T12:01:48.367Z,102225.34
2023-01-27T12:03:14.890Z,102219.13
2023-01-27T12:04:40.381Z,102210.69
2023-01-27T12:05:52.545Z,102212.81
2023-01-27T12:07:12.822Z,102218.16
2023-01-27T12:08:40.173Z,102223.19
2023-01-27T12:09:42.355Z,102219.03
2023-01-27T12:10:44.140Z,102214.72
2023-01-27T12:11:45.932Z,102221.16
2023-01-27T12:12:47.845Z,102216.88
2023-01-27T12:13:52.419Z,102218.78
2023-01-27T12:14:59.780Z,102215.13
2023-01-27T12:16:05.020Z,102209.78
2023-01-27T12:17:08.617Z,102174.84
2023-01-27T12:18:15.478Z,102202.84
2023-01-27T12:19:40.185Z,102203.28
2023-01-27T12:20:49.314Z,102203.19
2023-01-27T12:22:00.371Z,102200.84
2023-01-27T12:23:16.497Z,102208.56
2023-01-27T12:24:28.217Z,102202.31
2023-01-27T12:25:40.325Z,102199.66
2023-01-27T12:26:44.689Z,102203.19
2023-01-27T12:27:53.704Z,102196.97
2023-01-27T12:28:55.625Z,102194.31
2023-01-27T12:30:04.092Z,102198.06
2023-01-27T12:31:30.987Z,102187.78
2023-01-27T12:32:42.349Z,102169.63
2023-01-27T12:33:48.723Z,102169.50
2023-01-27T12:34:57.045Z,102182.66
2023-01-27T12:36:01.371Z,102167.56
2023-01-27T12:37:06.695Z,102172.19
2023-01-27T12:38:20.234Z,102165.78